sensor_id;sensor_type;location;lat;lon;timestamp;P1;durP1;ratioP1;P2;durP2;ratioP2
50086;SDS011;35967;50.718;7.050;2024-03-25T00:03:56;14.90;;;2.00;;
50086;SDS011;35967;50.718;7.050;2024-03-25T00:13:59;15.67;;;2.13;;
50086;SDS011;35967;50.718;7.050;2024-03-25T00:24:01;17.33;;;2.20;;
50086;SDS011;35967;50.718;7.050;2024-03-25T00:34:05;24.03;;;3.60;;
50086;SDS011;35967;50.718;7.050;2024-03-25T00:44:08;19.07;;;2.10;;
50086;SDS011;35967;50.718;7.050;2024-03-25T00:54:12;13.87;;;2.77;;
50086;SDS011;35967;50.718;7.050;2024-03-25T01:04:14;19.27;;;3.47;;
50086;SDS011;35967;50.718;7.050;2024-03-25T01:14:18;20.50;;;2.90;;
50086;SDS011;35967;50.718;7.050;2024-03-25T01:24:20;16.27;;;2.47;;
50086;SDS011;35967;50.718;7.050;2024-03-25T01:34:24;20.87;;;2.33;;
50086;SDS011;35967;50.718;7.050;2024-03-25T01:44:26;17.17;;;2.23;;
50086;SDS011;35967;50.718;7.050;2024-03-25T01:54:30;24.13;;;2.13;;
50086;SDS011;35967;50.718;7.050;2024-03-25T02:04:32;17.20;;;2.10;;
50086;SDS011;35967;50.718;7.050;2024-03-25T02:14:36;25.07;;;2.87;;
50086;SDS011;35967;50.718;7.050;2024-03-25T02:24:38;26.37;;;2.33;;
50086;SDS011;35967;50.718;7.050;2024-03-25T02:34:45;17.13;;;3.43;;
50086;SDS011;35967;50.718;7.050;2024-03-25T02:44:50;24.33;;;3.07;;
50086;SDS011;35967;50.718;7.050;2024-03-25T02:54:54;21.10;;;2.23;;
50086;SDS011;35967;50.718;7.050;2024-03-25T03:04:56;24.33;;;2.90;;
50086;SDS011;35967;50.718;7.050;2024-03-25T03:15:00;22.07;;;2.40;;
50086;SDS011;35967;50.718;7.050;2024-03-25T03:25:03;17.13;;;1.90;;
50086;SDS011;35967;50.718;7.050;2024-03-25T03:35:08;22.00;;;2.30;;
50086;SDS011;35967;50.718;7.050;2024-03-25T03:45:10;17.10;;;2.87;;
50086;SDS011;35967;50.718;7.050;2024-03-25T03:55:14;22.57;;;2.07;;
50086;SDS011;35967;50.718;7.050;2024-03-25T04:05:16;21.20;;;3.40;;
50086;SDS011;35967;50.718;7.050;2024-03-25T04:15:20;17.77;;;2.13;;
50086;SDS011;35967;50.718;7.050;2024-03-25T04:25:23;22.57;;;2.37;;
50086;SDS011;35967;50.718;7.050;2024-03-25T04:35:26;18.67;;;2.50;;
50086;SDS011;35967;50.718;7.050;2024-03-25T04:45:28;11.67;;;2.03;;
50086;SDS011;35967;50.718;7.050;2024-03-25T04:55:31;17.83;;;2.40;;
50086;SDS011;35967;50.718;7.050;2024-03-25T05:05:32;16.17;;;2.53;;
50086;SDS011;35967;50.718;7.050;2024-03-25T05:15:35;10.87;;;1.90;;
50086;SDS011;35967;50.718;7.050;2024-03-25T05:25:36;12.90;;;1.90;;
50086;SDS011;35967;50.718;7.050;2024-03-25T05:35:39;13.07;;;3.20;;
50086;SDS011;35967;50.718;7.050;2024-03-25T05:45:49;11.10;;;2.17;;
50086;SDS011;35967;50.718;7.050;2024-03-25T05:55:52;11.15;;;2.50;;
50086;SDS011;35967;50.718;7.050;2024-03-25T06:05:53;13.03;;;2.10;;
50086;SDS011;35967;50.718;7.050;2024-03-25T06:15:56;15.37;;;2.10;;
50086;SDS011;35967;50.718;7.050;2024-03-25T06:25:58;15.07;;;2.17;;
50086;SDS011;35967;50.718;7.050;2024-03-25T06:36:00;15.10;;;1.77;;
50086;SDS011;35967;50.718;7.050;2024-03-25T06:46:03;11.47;;;1.43;;
50086;SDS011;35967;50.718;7.050;2024-03-25T06:56:05;8.87;;;1.60;;
50086;SDS011;35967;50.718;7.050;2024-03-25T07:06:06;8.83;;;1.80;;
50086;SDS011;35967;50.718;7.050;2024-03-25T07:16:09;11.57;;;1.50;;
50086;SDS011;35967;50.718;7.050;2024-03-25T07:26:10;11.03;;;2.03;;
50086;SDS011;35967;50.718;7.050;2024-03-25T07:36:13;6.63;;;1.40;;
50086;SDS011;35967;50.718;7.050;2024-03-25T07:46:14;17.27;;;1.83;;
50086;SDS011;35967;50.718;7.050;2024-03-25T07:56:16;7.53;;;1.60;;
50086;SDS011;35967;50.718;7.050;2024-03-25T08:06:18;10.37;;;1.43;;
50086;SDS011;35967;50.718;7.050;2024-03-25T08:16:20;12.73;;;2.57;;
50086;SDS011;35967;50.718;7.050;2024-03-25T08:26:21;20.17;;;1.90;;
50086;SDS011;35967;50.718;7.050;2024-03-25T08:36:24;16.93;;;1.93;;
50086;SDS011;35967;50.718;7.050;2024-03-25T08:46:26;12.60;;;1.90;;
50086;SDS011;35967;50.718;7.050;2024-03-25T08:56:28;14.93;;;2.17;;
50086;SDS011;35967;50.718;7.050;2024-03-25T09:06:30;19.90;;;1.67;;
50086;SDS011;35967;50.718;7.050;2024-03-25T09:16:33;17.47;;;2.00;;
50086;SDS011;35967;50.718;7.050;2024-03-25T09:26:35;12.07;;;1.80;;
50086;SDS011;35967;50.718;7.050;2024-03-25T09:36:44;10.43;;;1.10;;
50086;SDS011;35967;50.718;7.050;2024-03-25T10:10:38;7.63;;;1.10;;
50086;SDS011;35967;50.718;7.050;2024-03-25T10:20:58;6.77;;;1.10;;
50086;SDS011;35967;50.718;7.050;2024-03-25T10:31:04;7.83;;;1.10;;
50086;SDS011;35967;50.718;7.050;2024-03-25T10:41:05;7.40;;;0.80;;
50086;SDS011;35967;50.718;7.050;2024-03-25T10:51:08;7.97;;;1.00;;
50086;SDS011;35967;50.718;7.050;2024-03-25T11:01:10;4.20;;;1.03;;
50086;SDS011;35967;50.718;7.050;2024-03-25T11:11:13;5.43;;;0.80;;
50086;SDS011;35967;50.718;7.050;2024-03-25T11:21:14;6.27;;;1.43;;
50086;SDS011;35967;50.718;7.050;2024-03-25T11:31:26;7.47;;;0.90;;
50086;SDS011;35967;50.718;7.050;2024-03-25T11:41:28;6.33;;;1.10;;
50086;SDS011;35967;50.718;7.050;2024-03-25T11:51:31;10.27;;;1.40;;
50086;SDS011;35967;50.718;7.050;2024-03-25T12:01:32;5.87;;;1.17;;
50086;SDS011;35967;50.718;7.050;2024-03-25T12:11:35;3.17;;;0.60;;
50086;SDS011;35967;50.718;7.050;2024-03-25T12:21:36;3.80;;;0.70;;
50086;SDS011;35967;50.718;7.050;2024-03-25T12:31:38;5.87;;;0.80;;
50086;SDS011;35967;50.718;7.050;2024-03-25T12:41:40;4.27;;;0.90;;
50086;SDS011;35967;50.718;7.050;2024-03-25T12:51:42;6.53;;;1.00;;
50086;SDS011;35967;50.718;7.050;2024-03-25T13:01:43;7.73;;;1.03;;
50086;SDS011;35967;50.718;7.050;2024-03-25T13:11:46;9.30;;;1.73;;
50086;SDS011;35967;50.718;7.050;2024-03-25T13:21:48;6.47;;;1.00;;
50086;SDS011;35967;50.718;7.050;2024-03-25T13:31:50;4.90;;;0.87;;
50086;SDS011;35967;50.718;7.050;2024-03-25T13:41:52;6.60;;;0.90;;
50086;SDS011;35967;50.718;7.050;2024-03-25T13:51:57;6.07;;;1.20;;
50086;SDS011;35967;50.718;7.050;2024-03-25T14:01:59;8.30;;;1.10;;
50086;SDS011;35967;50.718;7.050;2024-03-25T14:12:01;8.07;;;0.93;;
50086;SDS011;35967;50.718;7.050;2024-03-25T14:22:03;4.60;;;1.10;;
50086;SDS011;35967;50.718;7.050;2024-03-25T14:32:05;8.63;;;1.57;;
50086;SDS011;35967;50.718;7.050;2024-03-25T14:42:07;2.67;;;0.80;;
50086;SDS011;35967;50.718;7.050;2024-03-25T14:52:10;3.60;;;0.90;;
50086;SDS011;35967;50.718;7.050;2024-03-25T15:02:11;3.93;;;0.60;;
50086;SDS011;35967;50.718;7.050;2024-03-25T15:12:14;7.47;;;1.70;;
50086;SDS011;35967;50.718;7.050;2024-03-25T15:22:15;3.07;;;0.77;;
50086;SDS011;35967;50.718;7.050;2024-03-25T15:32:18;3.23;;;0.83;;
50086;SDS011;35967;50.718;7.050;2024-03-25T15:42:19;3.17;;;0.80;;
50086;SDS011;35967;50.718;7.050;2024-03-25T15:52:21;5.17;;;1.00;;
50086;SDS011;35967;50.718;7.050;2024-03-25T16:02:23;5.17;;;0.63;;
50086;SDS011;35967;50.718;7.050;2024-03-25T16:12:25;3.23;;;0.90;;
50086;SDS011;35967;50.718;7.050;2024-03-25T16:22:26;4.83;;;0.70;;
50086;SDS011;35967;50.718;7.050;2024-03-25T16:32:32;4.17;;;0.60;;
50086;SDS011;35967;50.718;7.050;2024-03-25T16:42:33;11.83;;;1.83;;
50086;SDS011;35967;50.718;7.050;2024-03-25T16:52:36;3.93;;;1.10;;
50086;SDS011;35967;50.718;7.050;2024-03-25T17:02:37;5.37;;;1.30;;
50086;SDS011;35967;50.718;7.050;2024-03-25T17:12:40;6.17;;;1.00;;
50086;SDS011;35967;50.718;7.050;2024-03-25T17:22:41;6.60;;;0.80;;
50086;SDS011;35967;50.718;7.050;2024-03-25T17:32:43;2.70;;;0.80;;
50086;SDS011;35967;50.718;7.050;2024-03-25T17:42:45;8.10;;;0.77;;
50086;SDS011;35967;50.718;7.050;2024-03-25T17:52:47;5.73;;;0.83;;
50086;SDS011;35967;50.718;7.050;2024-03-25T18:02:49;4.80;;;0.57;;
50086;SDS011;35967;50.718;7.050;2024-03-25T18:12:52;4.03;;;0.70;;
50086;SDS011;35967;50.718;7.050;2024-03-25T18:22:53;7.23;;;0.90;;
50086;SDS011;35967;50.718;7.050;2024-03-25T18:32:56;4.93;;;0.50;;
50086;SDS011;35967;50.718;7.050;2024-03-25T18:42:57;5.17;;;0.80;;
50086;SDS011;35967;50.718;7.050;2024-03-25T18:53:00;6.37;;;0.80;;
50086;SDS011;35967;50.718;7.050;2024-03-25T19:03:01;4.40;;;0.80;;
50086;SDS011;35967;50.718;7.050;2024-03-25T19:13:05;4.17;;;0.67;;
50086;SDS011;35967;50.718;7.050;2024-03-25T19:23:06;3.90;;;0.80;;
50086;SDS011;35967;50.718;7.050;2024-03-25T19:33:09;8.37;;;0.90;;
50086;SDS011;35967;50.718;7.050;2024-03-25T19:43:10;4.50;;;1.10;;
50086;SDS011;35967;50.718;7.050;2024-03-25T19:53:12;5.30;;;1.00;;
50086;SDS011;35967;50.718;7.050;2024-03-25T20:03:14;7.00;;;1.10;;
50086;SDS011;35967;50.718;7.050;2024-03-25T20:13:16;6.53;;;1.63;;
50086;SDS011;35967;50.718;7.050;2024-03-25T20:23:18;7.23;;;1.60;;
50086;SDS011;35967;50.718;7.050;2024-03-25T20:33:21;7.30;;;1.67;;
50086;SDS011;35967;50.718;7.050;2024-03-25T20:43:22;6.87;;;1.50;;
50086;SDS011;35967;50.718;7.050;2024-03-25T20:53:25;13.23;;;1.77;;
50086;SDS011;35967;50.718;7.050;2024-03-25T21:03:26;7.50;;;1.50;;
50086;SDS011;35967;50.718;7.050;2024-03-25T21:13:28;9.47;;;1.60;;
50086;SDS011;35967;50.718;7.050;2024-03-25T21:23:30;7.80;;;1.83;;
50086;SDS011;35967;50.718;7.050;2024-03-25T21:33:32;7.97;;;1.60;;
50086;SDS011;35967;50.718;7.050;2024-03-25T21:43:34;6.13;;;1.23;;
50086;SDS011;35967;50.718;7.050;2024-03-25T21:53:37;7.03;;;1.40;;
50086;SDS011;35967;50.718;7.050;2024-03-25T22:03:38;4.73;;;0.90;;
50086;SDS011;35967;50.718;7.050;2024-03-25T22:13:41;6.63;;;1.00;;
50086;SDS011;35967;50.718;7.050;2024-03-25T22:23:42;6.73;;;1.03;;
50086;SDS011;35967;50.718;7.050;2024-03-25T22:33:45;8.20;;;1.10;;
50086;SDS011;35967;50.718;7.050;2024-03-25T22:43:46;6.53;;;1.23;;
50086;SDS011;35967;50.718;7.050;2024-03-25T22:53:48;5.87;;;1.20;;
50086;SDS011;35967;50.718;7.050;2024-03-25T23:03:51;7.30;;;1.40;;
50086;SDS011;35967;50.718;7.050;2024-03-25T23:13:53;7.27;;;1.10;;
50086;SDS011;35967;50.718;7.050;2024-03-25T23:23:55;10.83;;;1.50;;
50086;SDS011;35967;50.718;7.050;2024-03-25T23:33:57;5.27;;;1.30;;
50086;SDS011;35967;50.718;7.050;2024-03-25T23:43:58;7.97;;;1.37;;
50086;SDS011;35967;50.718;7.050;2024-03-25T23:54:01;4.57;;;1.20;;
